Aérodrome :
LOGIN :

S'inscrire | Disclaimer

   EN    FR    IT 

 










Légende :    VFR   VFR Marginal   IFR   IFR Intensif   IFR Très Intensif
Visi : 
Plafond : 
>= 8 km
>= 3000ft
5 à 8 km
1000 à 3000 ft
1500m à 5 km
500 à 1000 ft
800 à 1500m
200 à 500 ft
< 800m
< 200 ft
Symboles :   Orages  Brouillard  Fortes neiges  Fortes précipitations  Vent > 20 kt
SIGMETs :   Divers  Orages  Givrage  Turbulence  Onde Orograph.  Cendres Volcan.







- Altitude de l'aérodrome : 25 ft
- Code IATA : QCY


EGXC - RAF Coningsby

DERNIER METAR :
  • 200650Z 19010KT 8000 -RA SCT004 BKN010 OVC018 08/07 Q1012 YLO2 TEMPO 7000 BKN008 GRN

METARs EXPIRÉS :
  • 200550Z 19010KT 7000 BR SCT003 BKN030 07/06 Q1013 YLO2
  • 200450Z 19009KT 6000 -RA FEW003 BKN040 06/05 Q1014 WHT

TAF AMD TAF EGXC
Valide du 20 à 06h jusqu'au 21 à 00h UTC


200554Z 2006/2024 19010KT 9999 BKN025
TEMPO 2006/2012 4000 RA BKN010
PROB30
TEMPO 2006/2010 3000 RADZ SCT003
BECMG 2008/2011 24015G25KT
PROB30
TEMPO 2012/2017 7000 SHRA BKN020TCU
BECMG 2015/2018 26012KT
PROB30 2017/2024 SCT015
Pas de NOTAMs connus pour ce terrain.



MET'MAP, la Météo Aéronautique d'un coup d'oeil ! - Copyright ORBIFLY Décembre 2007 - Disclaimer

ORBIFLY MET'MAP TEAM :

Programmation & Développement : Alexandra Zaïnal
Conception & Développement : Baudouin d'Aumeries
Co-Programmation & Développement : Marc-Olivier Méhu
Soutien technique & logistique : Manuel Goepfert

Contact : metmap@orbifly.com




SOURCES & CREDITS :

   NOAA